Terminal Aerodrome Forecast
Issued by NWS Grand Forks, ND

Home | Current Version | Previous Version | Graphics & Text | Print | Product List | Glossary On
Versions: 1 2 3 4 5 6 7 8 9 10 11 12 13
000
FTUS43 KFGF 221700
TAFGFK
TAF
KGFK 221725Z 2218/2318 19018G25KT P6SM SCT120 BKN160
     FM222000 19014G20KT P6SM BKN090
     FM222200 23011KT P6SM SCT050 BKN090
      TEMPO 2222/2224 -SHRA BKN050 BKN090=

USA.gov is the U.S. government's official web portal to all federal, state and local government web resources and services.